sensor_id;sensor_type;location;lat;lon;timestamp;P1;durP1;ratioP1;P2;durP2;ratioP2
47155;SDS011;32908;52.344;16.858;2022-11-04T00:00:17;26.70;;;13.60;;
47155;SDS011;32908;52.344;16.858;2022-11-04T00:02:58;25.83;;;12.57;;
47155;SDS011;32908;52.344;16.858;2022-11-04T00:05:27;23.67;;;12.40;;
47155;SDS011;32908;52.344;16.858;2022-11-04T00:07:56;27.33;;;13.60;;
47155;SDS011;32908;52.344;16.858;2022-11-04T00:10:42;26.30;;;13.30;;
47155;SDS011;32908;52.344;16.858;2022-11-04T00:13:28;22.33;;;11.80;;
47155;SDS011;32908;52.344;16.858;2022-11-04T00:16:00;21.23;;;11.33;;
47155;SDS011;32908;52.344;16.858;2022-11-04T00:18:47;21.50;;;11.57;;
47155;SDS011;32908;52.344;16.858;2022-11-04T00:21:15;23.10;;;12.40;;
47155;SDS011;32908;52.344;16.858;2022-11-04T00:24:03;25.60;;;12.70;;
47155;SDS011;32908;52.344;16.858;2022-11-04T00:26:50;26.70;;;11.90;;
47155;SDS011;32908;52.344;16.858;2022-11-04T00:29:37;27.05;;;11.90;;
47155;SDS011;32908;52.344;16.858;2022-11-04T00:32:06;26.50;;;12.90;;
47155;SDS011;32908;52.344;16.858;2022-11-04T00:34:53;20.57;;;12.43;;
47155;SDS011;32908;52.344;16.858;2022-11-04T00:37:22;22.53;;;12.80;;
47155;SDS011;32908;52.344;16.858;2022-11-04T00:39:50;22.60;;;12.77;;
47155;SDS011;32908;52.344;16.858;2022-11-04T00:42:18;25.40;;;13.17;;
47155;SDS011;32908;52.344;16.858;2022-11-04T00:44:47;20.30;;;11.50;;
47155;SDS011;32908;52.344;16.858;2022-11-04T00:47:15;21.60;;;12.50;;
47155;SDS011;32908;52.344;16.858;2022-11-04T00:49:43;20.80;;;12.03;;
47155;SDS011;32908;52.344;16.858;2022-11-04T00:52:11;22.63;;;11.40;;
47155;SDS011;32908;52.344;16.858;2022-11-04T00:54:39;23.70;;;12.93;;
47155;SDS011;32908;52.344;16.858;2022-11-04T00:57:09;23.70;;;14.27;;
47155;SDS011;32908;52.344;16.858;2022-11-04T00:59:38;24.97;;;13.07;;
47155;SDS011;32908;52.344;16.858;2022-11-04T01:02:06;24.73;;;13.03;;
47155;SDS011;32908;52.344;16.858;2022-11-04T01:04:35;22.10;;;12.10;;
47155;SDS011;32908;52.344;16.858;2022-11-04T01:07:04;22.55;;;11.90;;
47155;SDS011;32908;52.344;16.858;2022-11-04T01:09:33;21.90;;;12.37;;
47155;SDS011;32908;52.344;16.858;2022-11-04T01:12:02;24.37;;;13.30;;
47155;SDS011;32908;52.344;16.858;2022-11-04T01:14:32;21.30;;;11.23;;
47155;SDS011;32908;52.344;16.858;2022-11-04T01:17:01;23.73;;;12.67;;
47155;SDS011;32908;52.344;16.858;2022-11-04T01:19:29;20.70;;;12.00;;
47155;SDS011;32908;52.344;16.858;2022-11-04T01:21:57;25.10;;;13.00;;
47155;SDS011;32908;52.344;16.858;2022-11-04T01:24:26;22.93;;;12.63;;
47155;SDS011;32908;52.344;16.858;2022-11-04T01:26:54;23.07;;;12.40;;
47155;SDS011;32908;52.344;16.858;2022-11-04T01:29:23;22.90;;;12.35;;
47155;SDS011;32908;52.344;16.858;2022-11-04T01:31:51;25.47;;;12.47;;
47155;SDS011;32908;52.344;16.858;2022-11-04T01:34:20;22.00;;;12.13;;
47155;SDS011;32908;52.344;16.858;2022-11-04T01:36:48;29.93;;;15.23;;
47155;SDS011;32908;52.344;16.858;2022-11-04T01:39:16;26.23;;;14.67;;
47155;SDS011;32908;52.344;16.858;2022-11-04T01:41:44;22.47;;;13.30;;
47155;SDS011;32908;52.344;16.858;2022-11-04T01:47:20;24.45;;;12.20;;
47155;SDS011;32908;52.344;16.858;2022-11-04T01:49:51;23.37;;;11.90;;
47155;SDS011;32908;52.344;16.858;2022-11-04T01:52:23;22.23;;;12.47;;
47155;SDS011;32908;52.344;16.858;2022-11-04T01:54:56;20.63;;;12.13;;
47155;SDS011;32908;52.344;16.858;2022-11-04T01:57:30;21.23;;;11.93;;
47155;SDS011;32908;52.344;16.858;2022-11-04T02:00:03;19.20;;;12.20;;
47155;SDS011;32908;52.344;16.858;2022-11-04T02:02:35;23.13;;;12.60;;
47155;SDS011;32908;52.344;16.858;2022-11-04T02:05:06;19.93;;;12.53;;
47155;SDS011;32908;52.344;16.858;2022-11-04T02:07:36;23.33;;;13.40;;
47155;SDS011;32908;52.344;16.858;2022-11-04T02:10:05;24.50;;;14.20;;
47155;SDS011;32908;52.344;16.858;2022-11-04T02:12:34;24.30;;;15.30;;
47155;SDS011;32908;52.344;16.858;2022-11-04T02:15:21;25.70;;;16.27;;
47155;SDS011;32908;52.344;16.858;2022-11-04T02:18:02;27.37;;;16.37;;
47155;SDS011;32908;52.344;16.858;2022-11-04T02:20:43;28.57;;;19.23;;
47155;SDS011;32908;52.344;16.858;2022-11-04T02:27:08;33.03;;;19.27;;
47155;SDS011;32908;52.344;16.858;2022-11-04T02:29:48;28.43;;;18.10;;
47155;SDS011;32908;52.344;16.858;2022-11-04T02:32:32;29.00;;;17.83;;
47155;SDS011;32908;52.344;16.858;2022-11-04T02:35:09;27.70;;;16.50;;
47155;SDS011;32908;52.344;16.858;2022-11-04T02:37:47;30.20;;;17.67;;
47155;SDS011;32908;52.344;16.858;2022-11-04T02:40:24;27.80;;;16.23;;
47155;SDS011;32908;52.344;16.858;2022-11-04T02:42:56;24.87;;;16.57;;
47155;SDS011;32908;52.344;16.858;2022-11-04T02:45:29;28.70;;;17.00;;
47155;SDS011;32908;52.344;16.858;2022-11-04T02:48:03;25.83;;;16.27;;
47155;SDS011;32908;52.344;16.858;2022-11-04T02:50:36;25.17;;;15.67;;
47155;SDS011;32908;52.344;16.858;2022-11-04T02:53:09;27.87;;;15.93;;
47155;SDS011;32908;52.344;16.858;2022-11-04T02:55:45;25.27;;;15.90;;
47155;SDS011;32908;52.344;16.858;2022-11-04T02:58:17;28.17;;;17.87;;
47155;SDS011;32908;52.344;16.858;2022-11-04T03:00:47;23.53;;;16.53;;
47155;SDS011;32908;52.344;16.858;2022-11-04T03:03:17;24.97;;;15.77;;
47155;SDS011;32908;52.344;16.858;2022-11-04T03:05:49;25.27;;;16.30;;
47155;SDS011;32908;52.344;16.858;2022-11-04T03:08:20;28.07;;;17.70;;
47155;SDS011;32908;52.344;16.858;2022-11-04T03:10:52;36.70;;;17.30;;
47155;SDS011;32908;52.344;16.858;2022-11-04T03:13:23;27.23;;;15.87;;
47155;SDS011;32908;52.344;16.858;2022-11-04T03:15:56;19.87;;;13.70;;
47155;SDS011;32908;52.344;16.858;2022-11-04T03:18:29;25.17;;;15.87;;
47155;SDS011;32908;52.344;16.858;2022-11-04T03:21:01;30.90;;;16.67;;
47155;SDS011;32908;52.344;16.858;2022-11-04T03:23:31;22.67;;;15.40;;
47155;SDS011;32908;52.344;16.858;2022-11-04T03:26:03;27.27;;;14.57;;
47155;SDS011;32908;52.344;16.858;2022-11-04T03:28:36;23.93;;;14.73;;
47155;SDS011;32908;52.344;16.858;2022-11-04T03:31:10;25.80;;;15.50;;
47155;SDS011;32908;52.344;16.858;2022-11-04T03:33:42;26.80;;;15.40;;
47155;SDS011;32908;52.344;16.858;2022-11-04T03:36:13;26.87;;;15.00;;
47155;SDS011;32908;52.344;16.858;2022-11-04T03:38:43;28.63;;;15.63;;
47155;SDS011;32908;52.344;16.858;2022-11-04T03:41:12;25.90;;;15.37;;
47155;SDS011;32908;52.344;16.858;2022-11-04T03:43:44;24.17;;;14.83;;
47155;SDS011;32908;52.344;16.858;2022-11-04T03:46:12;26.90;;;16.13;;
47155;SDS011;32908;52.344;16.858;2022-11-04T03:48:41;28.63;;;18.67;;
47155;SDS011;32908;52.344;16.858;2022-11-04T03:51:11;32.60;;;20.03;;
47155;SDS011;32908;52.344;16.858;2022-11-04T03:53:40;44.23;;;29.73;;
47155;SDS011;32908;52.344;16.858;2022-11-04T03:56:19;41.57;;;26.27;;
47155;SDS011;32908;52.344;16.858;2022-11-04T03:59:00;39.58;;;25.72;;
47155;SDS011;32908;52.344;16.858;2022-11-04T04:01:39;49.17;;;30.67;;
47155;SDS011;32908;52.344;16.858;2022-11-04T04:04:13;59.73;;;35.87;;
47155;SDS011;32908;52.344;16.858;2022-11-04T04:06:45;39.67;;;22.67;;
47155;SDS011;32908;52.344;16.858;2022-11-04T04:09:16;31.57;;;16.70;;
47155;SDS011;32908;52.344;16.858;2022-11-04T04:11:49;33.40;;;17.20;;
47155;SDS011;32908;52.344;16.858;2022-11-04T04:14:22;28.40;;;16.20;;
47155;SDS011;32908;52.344;16.858;2022-11-04T04:17:09;28.40;;;16.55;;
47155;SDS011;32908;52.344;16.858;2022-11-04T04:19:43;27.45;;;16.15;;
47155;SDS011;32908;52.344;16.858;2022-11-04T04:22:16;25.80;;;15.60;;
47155;SDS011;32908;52.344;16.858;2022-11-04T04:24:47;25.30;;;14.40;;
47155;SDS011;32908;52.344;16.858;2022-11-04T04:27:35;26.77;;;14.40;;
47155;SDS011;32908;52.344;16.858;2022-11-04T04:30:06;19.50;;;13.10;;
47155;SDS011;32908;52.344;16.858;2022-11-04T04:32:37;21.00;;;12.73;;
47155;SDS011;32908;52.344;16.858;2022-11-04T04:35:07;22.10;;;12.77;;
47155;SDS011;32908;52.344;16.858;2022-11-04T04:37:55;21.07;;;13.07;;
47155;SDS011;32908;52.344;16.858;2022-11-04T04:40:48;24.70;;;13.03;;
47155;SDS011;32908;52.344;16.858;2022-11-04T04:43:37;23.00;;;12.97;;
47155;SDS011;32908;52.344;16.858;2022-11-04T04:46:27;23.87;;;13.93;;
47155;SDS011;32908;52.344;16.858;2022-11-04T04:49:02;25.97;;;14.07;;
47155;SDS011;32908;52.344;16.858;2022-11-04T04:51:31;24.27;;;13.67;;
47155;SDS011;32908;52.344;16.858;2022-11-04T04:54:01;23.17;;;13.83;;
47155;SDS011;32908;52.344;16.858;2022-11-04T04:56:29;26.53;;;16.70;;
47155;SDS011;32908;52.344;16.858;2022-11-04T04:58:57;38.33;;;20.40;;
47155;SDS011;32908;52.344;16.858;2022-11-04T05:01:25;35.70;;;17.40;;
47155;SDS011;32908;52.344;16.858;2022-11-04T05:03:54;25.77;;;15.00;;
47155;SDS011;32908;52.344;16.858;2022-11-04T05:06:22;22.47;;;14.17;;
47155;SDS011;32908;52.344;16.858;2022-11-04T05:08:50;25.17;;;14.87;;
47155;SDS011;32908;52.344;16.858;2022-11-04T05:11:18;19.77;;;12.97;;
47155;SDS011;32908;52.344;16.858;2022-11-04T05:13:47;25.83;;;14.27;;
47155;SDS011;32908;52.344;16.858;2022-11-04T05:16:16;21.53;;;13.50;;
47155;SDS011;32908;52.344;16.858;2022-11-04T05:18:44;26.63;;;14.03;;
47155;SDS011;32908;52.344;16.858;2022-11-04T05:21:14;21.60;;;13.23;;
47155;SDS011;32908;52.344;16.858;2022-11-04T05:23:43;23.93;;;14.23;;
47155;SDS011;32908;52.344;16.858;2022-11-04T05:26:12;20.90;;;13.23;;
47155;SDS011;32908;52.344;16.858;2022-11-04T05:28:40;30.17;;;15.57;;
47155;SDS011;32908;52.344;16.858;2022-11-04T05:31:09;29.33;;;14.10;;
47155;SDS011;32908;52.344;16.858;2022-11-04T05:33:38;30.30;;;15.40;;
47155;SDS011;32908;52.344;16.858;2022-11-04T05:36:07;24.87;;;13.77;;
47155;SDS011;32908;52.344;16.858;2022-11-04T05:38:37;23.03;;;15.27;;
47155;SDS011;32908;52.344;16.858;2022-11-04T05:41:06;35.45;;;16.15;;
47155;SDS011;32908;52.344;16.858;2022-11-04T05:43:36;23.73;;;14.87;;
47155;SDS011;32908;52.344;16.858;2022-11-04T05:46:05;25.43;;;17.00;;
47155;SDS011;32908;52.344;16.858;2022-11-04T05:48:33;29.50;;;18.67;;
47155;SDS011;32908;52.344;16.858;2022-11-04T05:51:02;33.50;;;16.97;;
47155;SDS011;32908;52.344;16.858;2022-11-04T05:53:32;29.83;;;15.97;;
47155;SDS011;32908;52.344;16.858;2022-11-04T05:56:00;28.27;;;14.73;;
47155;SDS011;32908;52.344;16.858;2022-11-04T05:58:29;29.70;;;15.20;;
47155;SDS011;32908;52.344;16.858;2022-11-04T06:01:09;23.20;;;14.90;;
47155;SDS011;32908;52.344;16.858;2022-11-04T06:03:39;26.80;;;15.33;;
47155;SDS011;32908;52.344;16.858;2022-11-04T06:06:07;31.20;;;14.90;;
47155;SDS011;32908;52.344;16.858;2022-11-04T06:08:36;29.27;;;15.13;;
47155;SDS011;32908;52.344;16.858;2022-11-04T06:11:04;29.23;;;14.93;;
47155;SDS011;32908;52.344;16.858;2022-11-04T06:13:33;26.10;;;14.93;;
47155;SDS011;32908;52.344;16.858;2022-11-04T06:16:01;28.73;;;15.23;;
47155;SDS011;32908;52.344;16.858;2022-11-04T06:18:29;22.77;;;14.43;;
47155;SDS011;32908;52.344;16.858;2022-11-04T06:21:08;21.70;;;13.93;;
47155;SDS011;32908;52.344;16.858;2022-11-04T06:23:45;30.32;;;15.75;;
47155;SDS011;32908;52.344;16.858;2022-11-04T06:26:14;29.97;;;15.67;;
47155;SDS011;32908;52.344;16.858;2022-11-04T06:28:43;24.60;;;15.53;;
47155;SDS011;32908;52.344;16.858;2022-11-04T06:31:12;23.87;;;14.67;;
47155;SDS011;32908;52.344;16.858;2022-11-04T06:33:41;27.47;;;15.63;;
47155;SDS011;32908;52.344;16.858;2022-11-04T06:36:10;25.00;;;14.40;;
47155;SDS011;32908;52.344;16.858;2022-11-04T06:38:39;26.00;;;14.80;;
47155;SDS011;32908;52.344;16.858;2022-11-04T06:41:11;27.65;;;15.10;;
47155;SDS011;32908;52.344;16.858;2022-11-04T06:43:40;22.33;;;14.63;;
47155;SDS011;32908;52.344;16.858;2022-11-04T06:46:22;29.70;;;15.93;;
47155;SDS011;32908;52.344;16.858;2022-11-04T06:48:52;30.03;;;15.47;;
47155;SDS011;32908;52.344;16.858;2022-11-04T06:51:21;28.00;;;15.07;;
47155;SDS011;32908;52.344;16.858;2022-11-04T06:53:50;26.40;;;14.63;;
47155;SDS011;32908;52.344;16.858;2022-11-04T06:56:18;26.33;;;15.47;;
47155;SDS011;32908;52.344;16.858;2022-11-04T06:58:48;24.47;;;15.37;;
47155;SDS011;32908;52.344;16.858;2022-11-04T07:01:17;27.05;;;16.10;;
47155;SDS011;32908;52.344;16.858;2022-11-04T07:03:48;30.90;;;15.63;;
47155;SDS011;32908;52.344;16.858;2022-11-04T07:06:17;33.60;;;16.87;;
47155;SDS011;32908;52.344;16.858;2022-11-04T07:08:46;28.83;;;16.83;;
47155;SDS011;32908;52.344;16.858;2022-11-04T07:11:14;36.50;;;16.90;;
47155;SDS011;32908;52.344;16.858;2022-11-04T07:13:42;35.10;;;16.77;;
47155;SDS011;32908;52.344;16.858;2022-11-04T07:16:11;27.20;;;15.45;;
47155;SDS011;32908;52.344;16.858;2022-11-04T07:18:39;26.83;;;15.57;;
47155;SDS011;32908;52.344;16.858;2022-11-04T07:21:08;27.33;;;15.70;;
47155;SDS011;32908;52.344;16.858;2022-11-04T07:23:37;26.00;;;13.43;;
47155;SDS011;32908;52.344;16.858;2022-11-04T07:26:06;26.27;;;14.93;;
47155;SDS011;32908;52.344;16.858;2022-11-04T07:28:36;30.30;;;15.97;;
47155;SDS011;32908;52.344;16.858;2022-11-04T07:31:05;25.83;;;15.73;;
47155;SDS011;32908;52.344;16.858;2022-11-04T07:33:34;28.10;;;15.65;;
47155;SDS011;32908;52.344;16.858;2022-11-04T07:36:03;26.67;;;15.23;;
47155;SDS011;32908;52.344;16.858;2022-11-04T07:38:32;26.13;;;14.77;;
47155;SDS011;32908;52.344;16.858;2022-11-04T07:41:00;25.43;;;15.10;;
47155;SDS011;32908;52.344;16.858;2022-11-04T07:43:29;23.43;;;14.37;;
47155;SDS011;32908;52.344;16.858;2022-11-04T07:46:02;28.47;;;16.33;;
47155;SDS011;32908;52.344;16.858;2022-11-04T07:48:31;26.37;;;14.87;;
47155;SDS011;32908;52.344;16.858;2022-11-04T07:51:00;34.10;;;20.40;;
47155;SDS011;32908;52.344;16.858;2022-11-04T07:53:29;40.53;;;26.40;;
47155;SDS011;32908;52.344;16.858;2022-11-04T07:55:57;35.97;;;23.60;;
47155;SDS011;32908;52.344;16.858;2022-11-04T07:58:28;37.17;;;20.77;;
47155;SDS011;32908;52.344;16.858;2022-11-04T08:00:57;26.03;;;18.17;;
47155;SDS011;32908;52.344;16.858;2022-11-04T08:03:26;25.63;;;15.50;;
47155;SDS011;32908;52.344;16.858;2022-11-04T08:05:56;22.77;;;15.23;;
47155;SDS011;32908;52.344;16.858;2022-11-04T08:08:26;22.95;;;15.20;;
47155;SDS011;32908;52.344;16.858;2022-11-04T08:10:56;25.50;;;13.87;;
47155;SDS011;32908;52.344;16.858;2022-11-04T08:13:26;29.00;;;15.77;;
47155;SDS011;32908;52.344;16.858;2022-11-04T08:15:56;21.53;;;14.10;;
47155;SDS011;32908;52.344;16.858;2022-11-04T08:18:24;24.10;;;14.33;;
47155;SDS011;32908;52.344;16.858;2022-11-04T08:20:53;22.07;;;12.73;;
47155;SDS011;32908;52.344;16.858;2022-11-04T08:23:21;25.57;;;14.00;;
47155;SDS011;32908;52.344;16.858;2022-11-04T08:25:49;20.20;;;13.97;;
47155;SDS011;32908;52.344;16.858;2022-11-04T08:28:18;25.03;;;13.63;;
47155;SDS011;32908;52.344;16.858;2022-11-04T08:30:52;21.20;;;13.90;;
47155;SDS011;32908;52.344;16.858;2022-11-04T08:35:50;23.60;;;14.30;;
47155;SDS011;32908;52.344;16.858;2022-11-04T08:38:18;21.87;;;13.80;;
47155;SDS011;32908;52.344;16.858;2022-11-04T08:40:46;23.60;;;14.27;;
47155;SDS011;32908;52.344;16.858;2022-11-04T08:43:15;24.03;;;14.17;;
47155;SDS011;32908;52.344;16.858;2022-11-04T08:45:44;24.27;;;14.37;;
47155;SDS011;32908;52.344;16.858;2022-11-04T08:48:13;23.90;;;14.33;;
47155;SDS011;32908;52.344;16.858;2022-11-04T08:50:42;27.60;;;15.23;;
47155;SDS011;32908;52.344;16.858;2022-11-04T08:53:14;25.70;;;15.67;;
47155;SDS011;32908;52.344;16.858;2022-11-04T08:55:42;26.07;;;15.00;;
47155;SDS011;32908;52.344;16.858;2022-11-04T08:58:10;28.60;;;15.73;;
47155;SDS011;32908;52.344;16.858;2022-11-04T09:00:40;23.57;;;14.37;;
47155;SDS011;32908;52.344;16.858;2022-11-04T09:03:08;21.53;;;14.30;;
47155;SDS011;32908;52.344;16.858;2022-11-04T09:05:37;27.10;;;14.97;;
47155;SDS011;32908;52.344;16.858;2022-11-04T09:08:10;26.00;;;14.73;;
47155;SDS011;32908;52.344;16.858;2022-11-04T09:10:41;25.67;;;15.20;;
47155;SDS011;32908;52.344;16.858;2022-11-04T09:13:10;21.23;;;14.60;;
47155;SDS011;32908;52.344;16.858;2022-11-04T09:15:39;30.30;;;15.47;;
47155;SDS011;32908;52.344;16.858;2022-11-04T09:18:07;25.57;;;15.23;;
47155;SDS011;32908;52.344;16.858;2022-11-04T09:20:35;23.20;;;14.87;;
47155;SDS011;32908;52.344;16.858;2022-11-04T09:23:05;24.17;;;14.13;;
47155;SDS011;32908;52.344;16.858;2022-11-04T09:25:34;20.03;;;13.43;;
47155;SDS011;32908;52.344;16.858;2022-11-04T09:28:05;23.03;;;14.50;;
47155;SDS011;32908;52.344;16.858;2022-11-04T09:30:33;22.77;;;14.33;;
47155;SDS011;32908;52.344;16.858;2022-11-04T09:33:02;23.43;;;13.63;;
47155;SDS011;32908;52.344;16.858;2022-11-04T09:35:31;24.60;;;14.60;;
47155;SDS011;32908;52.344;16.858;2022-11-04T09:37:59;23.53;;;14.53;;
47155;SDS011;32908;52.344;16.858;2022-11-04T09:40:27;23.43;;;14.00;;
47155;SDS011;32908;52.344;16.858;2022-11-04T09:42:59;28.93;;;14.53;;
47155;SDS011;32908;52.344;16.858;2022-11-04T09:45:41;24.93;;;14.27;;
47155;SDS011;32908;52.344;16.858;2022-11-04T09:48:11;22.43;;;14.47;;
47155;SDS011;32908;52.344;16.858;2022-11-04T09:50:44;26.70;;;14.43;;
47155;SDS011;32908;52.344;16.858;2022-11-04T09:53:18;26.90;;;14.20;;
47155;SDS011;32908;52.344;16.858;2022-11-04T09:55:49;27.43;;;14.87;;
47155;SDS011;32908;52.344;16.858;2022-11-04T09:58:20;23.90;;;14.80;;
47155;SDS011;32908;52.344;16.858;2022-11-04T10:00:50;25.87;;;16.17;;
47155;SDS011;32908;52.344;16.858;2022-11-04T10:03:26;25.75;;;15.30;;
47155;SDS011;32908;52.344;16.858;2022-11-04T10:06:09;25.00;;;14.83;;
47155;SDS011;32908;52.344;16.858;2022-11-04T10:08:47;28.27;;;15.07;;
47155;SDS011;32908;52.344;16.858;2022-11-04T10:11:26;24.17;;;14.67;;
47155;SDS011;32908;52.344;16.858;2022-11-04T10:14:05;27.83;;;15.77;;
47155;SDS011;32908;52.344;16.858;2022-11-04T10:16:55;25.00;;;15.40;;
47155;SDS011;32908;52.344;16.858;2022-11-04T10:19:33;27.27;;;15.53;;
47155;SDS011;32908;52.344;16.858;2022-11-04T10:22:09;23.43;;;14.63;;
47155;SDS011;32908;52.344;16.858;2022-11-04T10:24:41;26.90;;;15.83;;
47155;SDS011;32908;52.344;16.858;2022-11-04T10:27:16;25.97;;;15.43;;
47155;SDS011;32908;52.344;16.858;2022-11-04T10:29:47;28.10;;;15.20;;
47155;SDS011;32908;52.344;16.858;2022-11-04T10:32:18;26.50;;;15.07;;
47155;SDS011;32908;52.344;16.858;2022-11-04T10:34:51;23.57;;;14.13;;
47155;SDS011;32908;52.344;16.858;2022-11-04T10:37:23;26.67;;;15.23;;
47155;SDS011;32908;52.344;16.858;2022-11-04T10:39:54;24.80;;;15.65;;
47155;SDS011;32908;52.344;16.858;2022-11-04T10:42:25;25.60;;;15.25;;
47155;SDS011;32908;52.344;16.858;2022-11-04T10:44:54;23.63;;;14.20;;
47155;SDS011;32908;52.344;16.858;2022-11-04T10:47:27;28.33;;;15.47;;
47155;SDS011;32908;52.344;16.858;2022-11-04T10:52:47;23.77;;;14.63;;
47155;SDS011;32908;52.344;16.858;2022-11-04T10:55:25;20.97;;;13.57;;
47155;SDS011;32908;52.344;16.858;2022-11-04T10:57:56;23.47;;;14.10;;
47155;SDS011;32908;52.344;16.858;2022-11-04T11:00:37;26.47;;;14.67;;
47155;SDS011;32908;52.344;16.858;2022-11-04T11:03:20;23.57;;;13.83;;
47155;SDS011;32908;52.344;16.858;2022-11-04T11:05:51;25.23;;;13.90;;
47155;SDS011;32908;52.344;16.858;2022-11-04T11:08:28;22.57;;;13.67;;
47155;SDS011;32908;52.344;16.858;2022-11-04T11:13:25;23.27;;;13.75;;
47155;SDS011;32908;52.344;16.858;2022-11-04T11:16:05;25.77;;;14.30;;
47155;SDS011;32908;52.344;16.858;2022-11-04T11:18:36;22.30;;;14.05;;
47155;SDS011;32908;52.344;16.858;2022-11-04T11:21:05;26.37;;;14.20;;
47155;SDS011;32908;52.344;16.858;2022-11-04T11:23:36;21.53;;;14.27;;
47155;SDS011;32908;52.344;16.858;2022-11-04T11:26:07;23.00;;;14.37;;
47155;SDS011;32908;52.344;16.858;2022-11-04T11:28:36;25.87;;;14.33;;
47155;SDS011;32908;52.344;16.858;2022-11-04T11:31:10;26.57;;;15.00;;
47155;SDS011;32908;52.344;16.858;2022-11-04T11:33:49;24.67;;;15.43;;
47155;SDS011;32908;52.344;16.858;2022-11-04T11:36:20;24.27;;;15.00;;
47155;SDS011;32908;52.344;16.858;2022-11-04T11:38:51;24.03;;;14.63;;
47155;SDS011;32908;52.344;16.858;2022-11-04T11:41:24;21.80;;;13.97;;
47155;SDS011;32908;52.344;16.858;2022-11-04T11:44:01;25.87;;;14.17;;
47155;SDS011;32908;52.344;16.858;2022-11-04T11:46:32;25.70;;;13.60;;
47155;SDS011;32908;52.344;16.858;2022-11-04T11:49:03;20.03;;;14.00;;
47155;SDS011;32908;52.344;16.858;2022-11-04T11:51:33;25.50;;;14.75;;
47155;SDS011;32908;52.344;16.858;2022-11-04T11:54:13;22.53;;;13.87;;
47155;SDS011;32908;52.344;16.858;2022-11-04T11:56:44;24.97;;;14.17;;
47155;SDS011;32908;52.344;16.858;2022-11-04T11:59:15;25.20;;;14.33;;
47155;SDS011;32908;52.344;16.858;2022-11-04T12:01:49;22.77;;;14.50;;
47155;SDS011;32908;52.344;16.858;2022-11-04T12:04:20;23.50;;;15.30;;
47155;SDS011;32908;52.344;16.858;2022-11-04T12:06:51;24.65;;;14.80;;
47155;SDS011;32908;52.344;16.858;2022-11-04T12:09:26;23.17;;;13.67;;
47155;SDS011;32908;52.344;16.858;2022-11-04T12:12:17;23.80;;;14.60;;
47155;SDS011;32908;52.344;16.858;2022-11-04T12:14:52;24.40;;;15.23;;
47155;SDS011;32908;52.344;16.858;2022-11-04T12:17:34;25.95;;;15.50;;
47155;SDS011;32908;52.344;16.858;2022-11-04T12:20:17;33.73;;;16.57;;
47155;SDS011;32908;52.344;16.858;2022-11-04T12:22:52;23.38;;;14.83;;
47155;SDS011;32908;52.344;16.858;2022-11-04T12:25:26;25.43;;;14.77;;
47155;SDS011;32908;52.344;16.858;2022-11-04T12:28:00;27.77;;;15.90;;
47155;SDS011;32908;52.344;16.858;2022-11-04T12:30:38;33.47;;;16.93;;
47155;SDS011;32908;52.344;16.858;2022-11-04T12:33:16;24.40;;;15.40;;
47155;SDS011;32908;52.344;16.858;2022-11-04T12:35:58;30.37;;;16.97;;
47155;SDS011;32908;52.344;16.858;2022-11-04T12:38:41;31.45;;;17.05;;
47155;SDS011;32908;52.344;16.858;2022-11-04T12:41:32;27.97;;;15.63;;
47155;SDS011;32908;52.344;16.858;2022-11-04T12:44:07;26.97;;;15.13;;
47155;SDS011;32908;52.344;16.858;2022-11-04T12:46:43;29.67;;;17.20;;
47155;SDS011;32908;52.344;16.858;2022-11-04T12:49:23;29.13;;;17.20;;
47155;SDS011;32908;52.344;16.858;2022-11-04T12:52:05;33.43;;;16.60;;
47155;SDS011;32908;52.344;16.858;2022-11-04T12:54:43;28.30;;;17.13;;
47155;SDS011;32908;52.344;16.858;2022-11-04T12:57:20;27.90;;;17.50;;
47155;SDS011;32908;52.344;16.858;2022-11-04T12:59:55;29.77;;;17.10;;
47155;SDS011;32908;52.344;16.858;2022-11-04T13:02:33;29.63;;;18.27;;
47155;SDS011;32908;52.344;16.858;2022-11-04T13:05:06;33.63;;;20.03;;
47155;SDS011;32908;52.344;16.858;2022-11-04T13:07:37;39.17;;;21.30;;
47155;SDS011;32908;52.344;16.858;2022-11-04T13:10:13;33.75;;;19.25;;
47155;SDS011;32908;52.344;16.858;2022-11-04T13:12:45;36.13;;;19.17;;
47155;SDS011;32908;52.344;16.858;2022-11-04T13:15:17;36.63;;;19.30;;
47155;SDS011;32908;52.344;16.858;2022-11-04T13:17:48;31.10;;;18.40;;
47155;SDS011;32908;52.344;16.858;2022-11-04T13:20:27;29.67;;;17.43;;
47155;SDS011;32908;52.344;16.858;2022-11-04T13:23:01;28.10;;;17.10;;
47155;SDS011;32908;52.344;16.858;2022-11-04T13:25:33;30.23;;;16.77;;
47155;SDS011;32908;52.344;16.858;2022-11-04T13:28:07;29.23;;;17.53;;
47155;SDS011;32908;52.344;16.858;2022-11-04T13:30:39;34.80;;;17.57;;
47155;SDS011;32908;52.344;16.858;2022-11-04T13:33:13;31.67;;;17.47;;
47155;SDS011;32908;52.344;16.858;2022-11-04T13:35:48;32.10;;;17.85;;
47155;SDS011;32908;52.344;16.858;2022-11-04T13:38:20;30.20;;;17.13;;
47155;SDS011;32908;52.344;16.858;2022-11-04T13:40:54;30.97;;;17.97;;
47155;SDS011;32908;52.344;16.858;2022-11-04T13:43:31;27.73;;;17.60;;
47155;SDS011;32908;52.344;16.858;2022-11-04T13:46:18;29.43;;;17.90;;
47155;SDS011;32908;52.344;16.858;2022-11-04T13:48:52;29.70;;;17.77;;
47155;SDS011;32908;52.344;16.858;2022-11-04T13:51:23;26.23;;;15.60;;
47155;SDS011;32908;52.344;16.858;2022-11-04T13:54:01;29.77;;;16.47;;
47155;SDS011;32908;52.344;16.858;2022-11-04T13:56:31;32.13;;;18.30;;
47155;SDS011;32908;52.344;16.858;2022-11-04T13:59:04;34.73;;;18.27;;
47155;SDS011;32908;52.344;16.858;2022-11-04T14:04:56;38.67;;;21.87;;
47155;SDS011;32908;52.344;16.858;2022-11-04T14:10:36;42.57;;;22.67;;
47155;SDS011;32908;52.344;16.858;2022-11-04T14:22:31;35.73;;;23.07;;
47155;SDS011;32908;52.344;16.858;2022-11-04T14:25:02;73.33;;;53.70;;
47155;SDS011;32908;52.344;16.858;2022-11-04T14:27:58;52.57;;;34.63;;
47155;SDS011;32908;52.344;16.858;2022-11-04T14:30:29;44.15;;;28.50;;
47155;SDS011;32908;52.344;16.858;2022-11-04T14:32:59;42.23;;;24.73;;
47155;SDS011;32908;52.344;16.858;2022-11-04T14:35:30;34.87;;;22.20;;
47155;SDS011;32908;52.344;16.858;2022-11-04T14:38:12;39.00;;;22.13;;
47155;SDS011;32908;52.344;16.858;2022-11-04T14:40:51;48.47;;;26.67;;
47155;SDS011;32908;52.344;16.858;2022-11-04T14:43:37;64.33;;;42.03;;
47155;SDS011;32908;52.344;16.858;2022-11-04T14:46:07;63.43;;;37.33;;
47155;SDS011;32908;52.344;16.858;2022-11-04T14:48:41;56.97;;;33.17;;
47155;SDS011;32908;52.344;16.858;2022-11-04T14:51:22;49.13;;;27.53;;
47155;SDS011;32908;52.344;16.858;2022-11-04T14:53:53;51.07;;;27.40;;
47155;SDS011;32908;52.344;16.858;2022-11-04T14:56:33;48.87;;;24.47;;
47155;SDS011;32908;52.344;16.858;2022-11-04T14:59:02;38.60;;;22.37;;
47155;SDS011;32908;52.344;16.858;2022-11-04T15:01:32;50.13;;;27.47;;
47155;SDS011;32908;52.344;16.858;2022-11-04T15:04:04;43.50;;;24.70;;
47155;SDS011;32908;52.344;16.858;2022-11-04T15:06:37;69.03;;;35.37;;
47155;SDS011;32908;52.344;16.858;2022-11-04T15:09:16;60.40;;;31.07;;